createdAt,value
2023-05-04T00:03:07.195Z,101207.72
2023-05-04T00:08:09.033Z,101204.50
2023-05-04T00:13:10.843Z,101204.28
2023-05-04T00:18:12.645Z,101213.22
2023-05-04T00:23:14.330Z,101200.88
2023-05-04T00:28:15.985Z,101205.56
2023-05-04T00:33:17.847Z,101199.34
2023-05-04T00:38:19.529Z,101193.13
2023-05-04T00:43:21.242Z,101192.38
2023-05-04T00:48:23.335Z,101185.72
2023-05-04T00:53:25.080Z,101185.47
2023-05-04T00:58:26.737Z,101183.94
2023-05-04T01:03:28.684Z,101184.56
2023-05-04T01:08:39.397Z,101187.25
2023-05-04T01:13:41.223Z,101185.19
2023-05-04T01:18:42.892Z,101180.97
2023-05-04T01:23:44.572Z,101181.94
2023-05-04T01:28:46.152Z,101170.13
2023-05-04T01:33:49.549Z,101175.16
2023-05-04T01:38:55.257Z,101179.09
2023-05-04T01:43:57.859Z,101186.38
2023-05-04T01:49:01.595Z,101184.28
2023-05-04T01:54:03.283Z,101185.81
2023-05-04T01:59:05.901Z,101190.28
2023-05-04T02:04:08.134Z,101188.78
2023-05-04T02:09:09.941Z,101188.59
2023-05-04T02:14:11.620Z,101191.09
2023-05-04T02:19:13.272Z,101182.97
2023-05-04T02:24:14.925Z,101191.84
2023-05-04T02:29:16.517Z,101188.41
2023-05-04T02:34:18.352Z,101185.06
2023-05-04T02:39:22.814Z,101189.47
2023-05-04T02:44:24.415Z,101189.09
2023-05-04T02:49:26.682Z,101195.72
2023-05-04T02:54:28.409Z,101198.69
2023-05-04T02:59:30.012Z,101196.03
2023-05-04T03:04:31.874Z,101203.94
2023-05-04T03:09:33.547Z,101191.50
2023-05-04T03:14:35.234Z,101191.22
2023-05-04T03:19:37.296Z,101191.41
2023-05-04T03:24:40.549Z,101184.81
2023-05-04T03:29:42.591Z,101190.91
2023-05-04T03:34:45.880Z,101183.25
2023-05-04T03:39:48.541Z,101186.13
2023-05-04T03:44:50.742Z,101187.94
2023-05-04T03:49:52.619Z,101184.91
2023-05-04T03:54:55.587Z,101183.94
2023-05-04T03:59:58.015Z,101172.94
2023-05-04T04:05:00.674Z,101191.28
2023-05-04T04:10:03.357Z,101183.25
2023-05-04T04:15:05.741Z,101181.19
2023-05-04T04:20:09.004Z,101178.91
2023-05-04T04:25:10.749Z,101175.84
2023-05-04T04:30:13.560Z,101178.25
2023-05-04T04:35:15.643Z,101185.84
2023-05-04T04:40:18.124Z,101190.41
2023-05-04T04:45:20.517Z,101189.75
2023-05-04T04:50:22.576Z,101179.88
2023-05-04T04:55:25.919Z,101182.06
2023-05-04T05:00:27.697Z,101192.78
2023-05-04T05:05:31.547Z,101195.44
2023-05-04T05:10:33.555Z,101190.50
2023-05-04T05:15:35.555Z,101192.19
2023-05-04T05:20:37.214Z,101190.44
2023-05-04T05:25:39.355Z,101177.34
2023-05-04T05:30:41.099Z,101174.31
2023-05-04T05:35:43.394Z,101176.06
2023-05-04T05:40:45.062Z,101170.28
2023-05-04T05:45:46.702Z,101179.72
2023-05-04T05:50:48.342Z,101164.16
2023-05-04T05:55:50.000Z,101165.53
2023-05-04T06:00:51.627Z,101167.59
2023-05-04T06:05:53.222Z,101165.28
2023-05-04T06:10:56.412Z,101162.69
2023-05-04T06:15:58.134Z,101155.53
2023-05-04T06:21:00.698Z,101151.66
2023-05-04T06:26:02.727Z,101150.56
2023-05-04T06:31:04.474Z,101139.28
2023-05-04T06:36:06.423Z,101144.19
2023-05-04T06:41:08.138Z,101141.50
2023-05-04T06:46:09.982Z,101138.78
2023-05-04T06:51:11.655Z,101139.66
2023-05-04T06:56:13.322Z,101135.19
2023-05-04T07:01:16.903Z,101137.31
2023-05-04T07:06:21.101Z,101126.81
2023-05-04T07:11:23.536Z,101129.06
2023-05-04T07:16:26.339Z,101125.88
2023-05-04T07:21:29.485Z,101123.22
2023-05-04T07:26:31.559Z,101112.03
2023-05-04T07:31:33.796Z,101114.66
2023-05-04T07:36:35.756Z,101107.88
2023-05-04T07:41:37.746Z,101098.16
2023-05-04T07:46:39.509Z,101084.72
2023-05-04T07:51:41.480Z,101076.50
2023-05-04T07:56:43.187Z,101083.66
2023-05-04T08:01:44.889Z,101087.91
2023-05-04T08:06:46.882Z,101077.78
2023-05-04T08:11:50.382Z,101076.16
2023-05-04T08:16:52.021Z,101084.81
2023-05-04T08:21:53.771Z,101066.34
2023-05-04T08:27:07.149Z,101071.00
2023-05-04T08:32:10.105Z,101068.41
2023-05-04T08:37:11.830Z,101054.59
2023-05-04T08:42:13.499Z,101060.31
2023-05-04T08:47:15.384Z,101058.31
2023-05-04T08:52:17.746Z,101039.22
2023-05-04T08:57:19.794Z,101048.28
2023-05-04T09:02:23.409Z,101052.34
2023-05-04T09:07:25.335Z,101042.81
2023-05-04T09:12:27.866Z,101049.28
2023-05-04T09:17:29.740Z,101038.22
2023-05-04T09:22:31.515Z,101036.69
2023-05-04T09:27:33.216Z,101029.38
2023-05-04T09:32:48.522Z,101037.50
2023-05-04T09:37:50.198Z,101016.50
2023-05-04T09:42:56.854Z,101027.06
2023-05-04T09:47:58.738Z,101034.16
2023-05-04T09:53:00.962Z,101016.38
2023-05-04T09:58:02.792Z,101009.47
2023-05-04T10:03:06.344Z,101009.59
2023-05-04T10:08:08.309Z,100993.81
2023-05-04T10:13:10.198Z,100990.28
2023-05-04T10:18:32.844Z,100995.16
2023-05-04T10:24:30.584Z,100991.81
2023-05-04T10:29:35.643Z,100986.81
2023-05-04T10:34:37.451Z,100966.81
2023-05-04T10:39:39.979Z,100958.72
2023-05-04T10:44:55.110Z,100952.44
2023-05-04T10:50:14.626Z,100941.41
2023-05-04T10:55:17.426Z,100937.72
2023-05-04T11:00:19.383Z,100930.38
2023-05-04T11:05:21.037Z,100921.63
2023-05-04T11:10:24.458Z,100921.22
2023-05-04T11:15:26.200Z,100910.94
2023-05-04T11:20:27.889Z,100904.16
2023-05-04T11:25:30.652Z,100887.59
2023-05-04T11:30:33.794Z,100884.03
2023-05-04T11:35:35.424Z,100887.13
2023-05-04T11:40:40.888Z,100880.38
2023-05-04T11:45:42.734Z,100871.69
2023-05-04T11:50:45.918Z,100868.00
2023-05-04T11:55:47.610Z,100872.41
2023-05-04T12:00:56.078Z,100860.78
2023-05-04T12:05:58.782Z,100852.97
2023-05-04T12:11:11.250Z,100852.78
2023-05-04T12:16:20.457Z,100843.22
2023-05-04T12:21:22.733Z,100837.84
2023-05-04T12:26:24.604Z,100838.16
2023-05-04T12:31:27.164Z,100830.97
2023-05-04T12:36:28.957Z,100829.31
2023-05-04T12:41:31.520Z,100824.88
2023-05-04T12:46:33.304Z,100814.09
2023-05-04T12:51:34.997Z,100808.94
2023-05-04T12:56:37.309Z,100803.13
2023-05-04T13:01:41.468Z,100807.16
2023-05-04T13:06:43.235Z,100795.75
2023-05-04T13:11:45.265Z,100790.03
2023-05-04T13:16:48.032Z,100779.16
2023-05-04T13:21:50.589Z,100772.94
2023-05-04T13:26:52.231Z,100771.75
2023-05-04T13:31:55.401Z,100775.03
2023-05-04T13:36:57.164Z,100768.06
2023-05-04T13:41:58.822Z,100762.50
2023-05-04T13:47:02.173Z,100762.41
2023-05-04T13:52:03.899Z,100748.16
2023-05-04T13:57:05.569Z,100740.13
2023-05-04T14:02:07.652Z,100731.91
2023-05-04T14:07:12.045Z,100720.25
2023-05-04T14:12:15.670Z,100716.06
2023-05-04T14:17:17.630Z,100718.59
2023-05-04T14:22:19.322Z,100704.03
2023-05-04T14:27:21.131Z,100703.47
2023-05-04T14:32:22.802Z,100683.19
2023-05-04T14:37:24.441Z,100685.72
2023-05-04T14:42:26.345Z,100684.28
2023-05-04T14:47:29.053Z,100670.78
2023-05-04T14:52:30.854Z,100667.22
2023-05-04T14:57:33.212Z,100668.22
2023-05-04T15:02:35.901Z,100651.38
2023-05-04T15:07:37.896Z,100652.78
2023-05-04T15:12:40.207Z,100654.72
2023-05-04T15:17:42.066Z,100650.44
2023-05-04T15:22:47.173Z,100647.28
2023-05-04T15:27:48.767Z,100637.88
2023-05-04T15:32:50.545Z,100633.06
2023-05-04T15:37:52.780Z,100625.91
2023-05-04T15:42:54.954Z,100630.44
2023-05-04T15:47:59.399Z,100626.03
2023-05-04T15:53:01.067Z,100614.00
2023-05-04T15:58:03.081Z,100604.69
2023-05-04T16:03:08.200Z,100601.44
2023-05-04T16:08:09.960Z,100599.47
2023-05-04T16:13:12.299Z,100601.13
2023-05-04T16:18:14.057Z,100591.47
2023-05-04T16:23:17.570Z,100587.44
2023-05-04T16:28:19.222Z,100587.44
2023-05-04T16:33:20.923Z,100590.59
2023-05-04T16:38:22.554Z,100582.59
2023-05-04T16:43:24.296Z,100586.53
2023-05-04T16:48:25.964Z,100588.91
2023-05-04T16:53:27.645Z,100589.78
2023-05-04T16:58:29.518Z,100576.88
2023-05-04T17:03:32.742Z,100574.41
2023-05-04T17:08:35.017Z,100576.34
2023-05-04T17:13:36.907Z,100585.09
2023-05-04T17:18:38.573Z,100591.13
2023-05-04T17:23:40.924Z,100575.72
2023-05-04T17:28:42.899Z,100580.06
2023-05-04T17:33:44.596Z,100573.88
2023-05-04T17:38:46.299Z,100582.97
2023-05-04T17:43:50.194Z,100583.94
2023-05-04T17:48:53.186Z,100590.75
2023-05-04T17:53:57.876Z,100588.91
2023-05-04T17:58:59.578Z,100605.78
2023-05-04T18:04:04.175Z,100605.75
2023-05-04T18:09:06.097Z,100617.50
2023-05-04T18:14:07.760Z,100630.94
2023-05-04T18:19:09.503Z,100624.06
2023-05-04T18:24:12.169Z,100618.16
2023-05-04T18:29:18.899Z,100611.47
2023-05-04T18:34:21.156Z,100615.84
2023-05-04T18:39:22.807Z,100596.75
2023-05-04T18:44:24.482Z,100604.63
2023-05-04T18:49:26.138Z,100606.09
2023-05-04T18:54:33.947Z,100602.78
2023-05-04T18:59:36.308Z,100603.38
2023-05-04T19:04:37.949Z,100615.25
2023-05-04T19:09:39.819Z,100619.41
2023-05-04T19:14:43.428Z,100627.31
2023-05-04T19:19:45.112Z,100622.06
2023-05-04T19:24:50.040Z,100632.31
2023-05-04T19:29:51.681Z,100633.84
2023-05-04T19:34:53.424Z,100628.09
2023-05-04T19:39:55.097Z,100620.00
2023-05-04T19:44:57.156Z,100615.59
2023-05-04T19:49:58.950Z,100620.00
2023-05-04T19:55:00.651Z,100612.19
2023-05-04T20:00:03.062Z,100615.41
2023-05-04T20:05:13.646Z,100609.13
2023-05-04T20:10:15.322Z,100594.88
2023-05-04T20:15:16.992Z,100597.06
2023-05-04T20:20:20.451Z,100611.97
2023-05-04T20:25:22.894Z,100602.63
2023-05-04T20:30:28.079Z,100600.25
2023-05-04T20:35:29.856Z,100603.97
2023-05-04T20:40:32.167Z,100606.00
2023-05-04T20:45:34.295Z,100603.75
2023-05-04T20:50:36.006Z,100614.56
2023-05-04T20:55:37.655Z,100607.25
2023-05-04T21:00:40.096Z,100604.66
2023-05-04T21:05:41.750Z,100611.41
2023-05-04T21:10:43.395Z,100613.56
2023-05-04T21:15:45.205Z,100612.63
2023-05-04T21:20:47.119Z,100613.94
2023-05-04T21:25:48.786Z,100606.88
2023-05-04T21:30:50.455Z,100608.59
2023-05-04T21:35:52.217Z,100597.56
2023-05-04T21:40:53.836Z,100597.97
2023-05-04T21:45:55.476Z,100596.16
2023-05-04T21:50:57.231Z,100603.66
2023-05-04T21:56:06.389Z,100597.94
2023-05-04T22:01:08.715Z,100592.88
2023-05-04T22:06:10.650Z,100594.25
2023-05-04T22:11:12.302Z,100595.19
2023-05-04T22:16:13.975Z,100590.81
2023-05-04T22:21:15.763Z,100588.47
2023-05-04T22:26:17.460Z,100593.47
2023-05-04T22:31:19.325Z,100599.66
2023-05-04T22:36:20.990Z,100594.09
2023-05-04T22:41:22.718Z,100597.09
2023-05-04T22:46:25.552Z,100601.44
2023-05-04T22:51:30.376Z,100600.72
2023-05-04T22:56:32.663Z,100612.41
2023-05-04T23:01:34.401Z,100603.06
2023-05-04T23:06:38.613Z,100604.22
2023-05-04T23:11:40.693Z,100593.88
2023-05-04T23:16:42.355Z,100587.22
2023-05-04T23:21:43.991Z,100589.94
2023-05-04T23:26:45.621Z,100585.09
2023-05-04T23:31:47.324Z,100591.25
2023-05-04T23:36:49.248Z,100591.38
2023-05-04T23:41:50.931Z,100589.13
2023-05-04T23:46:52.577Z,100586.56
2023-05-04T23:51:54.215Z,100585.56
2023-05-04T23:56:55.870Z,100587.97
